sensor_id;sensor_type;location;lat;lon;timestamp;P1;durP1;ratioP1;P2;durP2;ratioP2
33826;SDS011;20128;45.582;5.298;2023-11-19T00:00:26;17.98;;;7.05;;
33826;SDS011;20128;45.582;5.298;2023-11-19T00:02:52;13.70;;;6.82;;
33826;SDS011;20128;45.582;5.298;2023-11-19T00:05:17;15.27;;;8.30;;
33826;SDS011;20128;45.582;5.298;2023-11-19T00:07:43;17.00;;;7.68;;
33826;SDS011;20128;45.582;5.298;2023-11-19T00:10:10;14.85;;;7.43;;
33826;SDS011;20128;45.582;5.298;2023-11-19T00:12:37;18.23;;;9.30;;
33826;SDS011;20128;45.582;5.298;2023-11-19T00:15:09;17.38;;;8.20;;
33826;SDS011;20128;45.582;5.298;2023-11-19T00:17:38;16.25;;;7.57;;
33826;SDS011;20128;45.582;5.298;2023-11-19T00:20:14;15.20;;;6.82;;
33826;SDS011;20128;45.582;5.298;2023-11-19T00:22:41;15.05;;;7.45;;
33826;SDS011;20128;45.582;5.298;2023-11-19T00:25:07;16.17;;;7.18;;
33826;SDS011;20128;45.582;5.298;2023-11-19T00:27:34;13.23;;;6.63;;
33826;SDS011;20128;45.582;5.298;2023-11-19T00:29:59;17.83;;;7.30;;
33826;SDS011;20128;45.582;5.298;2023-11-19T00:32:25;15.45;;;6.80;;
33826;SDS011;20128;45.582;5.298;2023-11-19T00:34:51;15.13;;;5.72;;
33826;SDS011;20128;45.582;5.298;2023-11-19T00:37:16;18.05;;;8.63;;
33826;SDS011;20128;45.582;5.298;2023-11-19T00:39:42;17.90;;;7.93;;
33826;SDS011;20128;45.582;5.298;2023-11-19T00:42:08;12.63;;;6.60;;
33826;SDS011;20128;45.582;5.298;2023-11-19T00:44:35;16.10;;;6.85;;
33826;SDS011;20128;45.582;5.298;2023-11-19T00:47:01;14.85;;;7.07;;
33826;SDS011;20128;45.582;5.298;2023-11-19T00:49:26;17.10;;;6.47;;
33826;SDS011;20128;45.582;5.298;2023-11-19T00:51:52;10.30;;;6.13;;
33826;SDS011;20128;45.582;5.298;2023-11-19T00:54:18;14.90;;;5.70;;
33826;SDS011;20128;45.582;5.298;2023-11-19T00:56:43;10.60;;;5.88;;
33826;SDS011;20128;45.582;5.298;2023-11-19T00:59:09;10.77;;;6.07;;
33826;SDS011;20128;45.582;5.298;2023-11-19T01:01:35;11.88;;;6.30;;
33826;SDS011;20128;45.582;5.298;2023-11-19T01:04:01;13.13;;;5.93;;
33826;SDS011;20128;45.582;5.298;2023-11-19T01:06:30;11.02;;;6.07;;
33826;SDS011;20128;45.582;5.298;2023-11-19T01:08:56;14.25;;;6.85;;
33826;SDS011;20128;45.582;5.298;2023-11-19T01:11:22;15.43;;;7.15;;
33826;SDS011;20128;45.582;5.298;2023-11-19T01:13:48;15.50;;;6.28;;
33826;SDS011;20128;45.582;5.298;2023-11-19T01:16:14;12.50;;;6.40;;
33826;SDS011;20128;45.582;5.298;2023-11-19T01:18:41;20.05;;;5.85;;
33826;SDS011;20128;45.582;5.298;2023-11-19T01:21:06;13.25;;;5.43;;
33826;SDS011;20128;45.582;5.298;2023-11-19T01:23:32;11.63;;;5.45;;
33826;SDS011;20128;45.582;5.298;2023-11-19T01:25:59;11.93;;;6.03;;
33826;SDS011;20128;45.582;5.298;2023-11-19T01:28:24;13.63;;;5.88;;
33826;SDS011;20128;45.582;5.298;2023-11-19T01:30:50;12.38;;;6.15;;
33826;SDS011;20128;45.582;5.298;2023-11-19T01:33:16;19.25;;;6.20;;
33826;SDS011;20128;45.582;5.298;2023-11-19T01:35:41;14.45;;;6.68;;
33826;SDS011;20128;45.582;5.298;2023-11-19T01:38:07;18.15;;;7.35;;
33826;SDS011;20128;45.582;5.298;2023-11-19T01:40:36;15.50;;;7.05;;
33826;SDS011;20128;45.582;5.298;2023-11-19T01:43:02;13.50;;;6.78;;
33826;SDS011;20128;45.582;5.298;2023-11-19T01:45:29;14.70;;;6.43;;
33826;SDS011;20128;45.582;5.298;2023-11-19T01:47:56;14.05;;;6.90;;
33826;SDS011;20128;45.582;5.298;2023-11-19T01:50:23;15.05;;;6.45;;
33826;SDS011;20128;45.582;5.298;2023-11-19T01:52:54;14.10;;;6.88;;
33826;SDS011;20128;45.582;5.298;2023-11-19T01:55:25;13.48;;;7.22;;
33826;SDS011;20128;45.582;5.298;2023-11-19T01:57:53;14.68;;;7.00;;
33826;SDS011;20128;45.582;5.298;2023-11-19T02:00:24;14.63;;;5.75;;
33826;SDS011;20128;45.582;5.298;2023-11-19T02:02:50;17.63;;;5.75;;
33826;SDS011;20128;45.582;5.298;2023-11-19T02:05:17;11.85;;;6.35;;
33826;SDS011;20128;45.582;5.298;2023-11-19T02:07:42;19.10;;;6.60;;
33826;SDS011;20128;45.582;5.298;2023-11-19T02:10:09;13.98;;;5.90;;
33826;SDS011;20128;45.582;5.298;2023-11-19T02:12:42;11.30;;;5.55;;
33826;SDS011;20128;45.582;5.298;2023-11-19T02:15:08;17.67;;;6.18;;
33826;SDS011;20128;45.582;5.298;2023-11-19T02:17:35;11.63;;;5.97;;
33826;SDS011;20128;45.582;5.298;2023-11-19T02:20:02;12.68;;;5.72;;
33826;SDS011;20128;45.582;5.298;2023-11-19T02:22:34;12.40;;;5.47;;
33826;SDS011;20128;45.582;5.298;2023-11-19T02:25:00;12.07;;;5.18;;
33826;SDS011;20128;45.582;5.298;2023-11-19T02:27:40;10.63;;;5.47;;
33826;SDS011;20128;45.582;5.298;2023-11-19T02:30:17;12.60;;;4.57;;
33826;SDS011;20128;45.582;5.298;2023-11-19T02:32:42;12.50;;;5.10;;
33826;SDS011;20128;45.582;5.298;2023-11-19T02:35:08;13.30;;;5.70;;
33826;SDS011;20128;45.582;5.298;2023-11-19T02:37:34;15.68;;;5.70;;
33826;SDS011;20128;45.582;5.298;2023-11-19T02:40:00;9.93;;;4.68;;
33826;SDS011;20128;45.582;5.298;2023-11-19T02:42:28;9.90;;;4.63;;
33826;SDS011;20128;45.582;5.298;2023-11-19T02:44:53;9.25;;;4.63;;
33826;SDS011;20128;45.582;5.298;2023-11-19T02:47:19;11.35;;;5.30;;
33826;SDS011;20128;45.582;5.298;2023-11-19T02:49:46;18.40;;;7.65;;
33826;SDS011;20128;45.582;5.298;2023-11-19T02:52:12;13.32;;;5.47;;
33826;SDS011;20128;45.582;5.298;2023-11-19T02:54:39;15.90;;;7.75;;
33826;SDS011;20128;45.582;5.298;2023-11-19T02:57:06;11.63;;;5.20;;
33826;SDS011;20128;45.582;5.298;2023-11-19T02:59:35;13.95;;;5.20;;
33826;SDS011;20128;45.582;5.298;2023-11-19T03:02:07;13.80;;;5.05;;
33826;SDS011;20128;45.582;5.298;2023-11-19T03:04:37;9.75;;;5.10;;
33826;SDS011;20128;45.582;5.298;2023-11-19T03:07:04;11.80;;;5.00;;
33826;SDS011;20128;45.582;5.298;2023-11-19T03:09:30;12.68;;;5.28;;
33826;SDS011;20128;45.582;5.298;2023-11-19T03:11:56;9.30;;;5.55;;
33826;SDS011;20128;45.582;5.298;2023-11-19T03:14:21;10.05;;;5.30;;
33826;SDS011;20128;45.582;5.298;2023-11-19T03:16:48;11.38;;;5.30;;
33826;SDS011;20128;45.582;5.298;2023-11-19T03:19:13;10.68;;;5.30;;
33826;SDS011;20128;45.582;5.298;2023-11-19T03:21:40;13.25;;;5.72;;
33826;SDS011;20128;45.582;5.298;2023-11-19T03:24:05;14.85;;;6.07;;
33826;SDS011;20128;45.582;5.298;2023-11-19T03:26:32;11.70;;;5.85;;
33826;SDS011;20128;45.582;5.298;2023-11-19T03:28:58;15.48;;;5.95;;
33826;SDS011;20128;45.582;5.298;2023-11-19T03:31:24;11.68;;;5.78;;
33826;SDS011;20128;45.582;5.298;2023-11-19T03:33:50;10.02;;;4.93;;
33826;SDS011;20128;45.582;5.298;2023-11-19T03:36:16;11.07;;;5.50;;
33826;SDS011;20128;45.582;5.298;2023-11-19T03:38:42;14.30;;;5.53;;
33826;SDS011;20128;45.582;5.298;2023-11-19T03:41:11;13.88;;;5.38;;
33826;SDS011;20128;45.582;5.298;2023-11-19T03:43:42;11.30;;;6.05;;
33826;SDS011;20128;45.582;5.298;2023-11-19T03:46:26;11.57;;;5.20;;
33826;SDS011;20128;45.582;5.298;2023-11-19T03:48:52;10.70;;;5.38;;
33826;SDS011;20128;45.582;5.298;2023-11-19T03:51:17;14.50;;;5.32;;
33826;SDS011;20128;45.582;5.298;2023-11-19T03:53:46;12.77;;;5.38;;
33826;SDS011;20128;45.582;5.298;2023-11-19T03:56:12;12.45;;;5.70;;
33826;SDS011;20128;45.582;5.298;2023-11-19T03:58:38;12.15;;;6.32;;
33826;SDS011;20128;45.582;5.298;2023-11-19T04:01:04;14.18;;;6.40;;
33826;SDS011;20128;45.582;5.298;2023-11-19T04:03:31;13.70;;;6.72;;
33826;SDS011;20128;45.582;5.298;2023-11-19T04:05:56;11.52;;;5.50;;
33826;SDS011;20128;45.582;5.298;2023-11-19T04:08:22;7.75;;;4.97;;
33826;SDS011;20128;45.582;5.298;2023-11-19T04:10:48;14.95;;;5.93;;
33826;SDS011;20128;45.582;5.298;2023-11-19T04:13:13;10.77;;;5.30;;
33826;SDS011;20128;45.582;5.298;2023-11-19T04:15:39;10.05;;;5.68;;
33826;SDS011;20128;45.582;5.298;2023-11-19T04:18:05;14.05;;;6.70;;
33826;SDS011;20128;45.582;5.298;2023-11-19T04:20:30;15.30;;;5.68;;
33826;SDS011;20128;45.582;5.298;2023-11-19T04:22:56;12.27;;;5.95;;
33826;SDS011;20128;45.582;5.298;2023-11-19T04:25:22;8.18;;;4.93;;
33826;SDS011;20128;45.582;5.298;2023-11-19T04:27:51;8.68;;;5.07;;
33826;SDS011;20128;45.582;5.298;2023-11-19T04:30:16;11.25;;;5.30;;
33826;SDS011;20128;45.582;5.298;2023-11-19T04:32:43;14.02;;;5.78;;
33826;SDS011;20128;45.582;5.298;2023-11-19T04:35:09;12.82;;;4.88;;
33826;SDS011;20128;45.582;5.298;2023-11-19T04:37:35;9.40;;;4.57;;
33826;SDS011;20128;45.582;5.298;2023-11-19T04:40:00;13.15;;;4.95;;
33826;SDS011;20128;45.582;5.298;2023-11-19T04:42:26;11.48;;;4.70;;
33826;SDS011;20128;45.582;5.298;2023-11-19T04:44:52;13.70;;;5.75;;
33826;SDS011;20128;45.582;5.298;2023-11-19T04:47:17;11.27;;;4.93;;
33826;SDS011;20128;45.582;5.298;2023-11-19T04:49:43;12.05;;;5.20;;
33826;SDS011;20128;45.582;5.298;2023-11-19T04:52:09;11.50;;;4.72;;
33826;SDS011;20128;45.582;5.298;2023-11-19T04:54:34;10.50;;;5.18;;
33826;SDS011;20128;45.582;5.298;2023-11-19T04:57:00;9.00;;;4.65;;
33826;SDS011;20128;45.582;5.298;2023-11-19T04:59:25;9.98;;;5.13;;
33826;SDS011;20128;45.582;5.298;2023-11-19T05:01:52;12.98;;;5.10;;
33826;SDS011;20128;45.582;5.298;2023-11-19T05:04:18;9.95;;;5.72;;
33826;SDS011;20128;45.582;5.298;2023-11-19T05:06:44;10.38;;;5.32;;
33826;SDS011;20128;45.582;5.298;2023-11-19T05:09:09;10.52;;;4.70;;
33826;SDS011;20128;45.582;5.298;2023-11-19T05:11:38;11.02;;;5.63;;
33826;SDS011;20128;45.582;5.298;2023-11-19T05:14:04;10.60;;;4.40;;
33826;SDS011;20128;45.582;5.298;2023-11-19T05:16:30;9.85;;;4.68;;
33826;SDS011;20128;45.582;5.298;2023-11-19T05:18:56;8.82;;;5.35;;
33826;SDS011;20128;45.582;5.298;2023-11-19T05:21:22;9.30;;;4.70;;
33826;SDS011;20128;45.582;5.298;2023-11-19T05:23:48;10.48;;;5.35;;
33826;SDS011;20128;45.582;5.298;2023-11-19T05:26:21;9.80;;;5.03;;
33826;SDS011;20128;45.582;5.298;2023-11-19T05:28:47;9.57;;;5.18;;
33826;SDS011;20128;45.582;5.298;2023-11-19T05:31:12;13.68;;;5.70;;
33826;SDS011;20128;45.582;5.298;2023-11-19T05:33:38;10.82;;;5.43;;
33826;SDS011;20128;45.582;5.298;2023-11-19T05:36:04;13.20;;;5.32;;
33826;SDS011;20128;45.582;5.298;2023-11-19T05:38:30;9.20;;;5.32;;
33826;SDS011;20128;45.582;5.298;2023-11-19T05:40:56;10.75;;;5.35;;
33826;SDS011;20128;45.582;5.298;2023-11-19T05:43:22;11.38;;;5.57;;
33826;SDS011;20128;45.582;5.298;2023-11-19T05:45:47;10.60;;;5.28;;
33826;SDS011;20128;45.582;5.298;2023-11-19T05:48:13;12.20;;;6.03;;
33826;SDS011;20128;45.582;5.298;2023-11-19T05:50:39;16.30;;;5.60;;
33826;SDS011;20128;45.582;5.298;2023-11-19T05:53:04;16.13;;;5.82;;
33826;SDS011;20128;45.582;5.298;2023-11-19T05:55:34;12.98;;;6.07;;
33826;SDS011;20128;45.582;5.298;2023-11-19T05:58:01;10.95;;;5.65;;
33826;SDS011;20128;45.582;5.298;2023-11-19T06:00:28;16.17;;;5.80;;
33826;SDS011;20128;45.582;5.298;2023-11-19T06:02:53;11.02;;;5.22;;
33826;SDS011;20128;45.582;5.298;2023-11-19T06:05:19;11.10;;;4.72;;
33826;SDS011;20128;45.582;5.298;2023-11-19T06:07:44;12.35;;;5.50;;
33826;SDS011;20128;45.582;5.298;2023-11-19T06:10:11;11.80;;;5.43;;
33826;SDS011;20128;45.582;5.298;2023-11-19T06:12:39;11.27;;;4.93;;
33826;SDS011;20128;45.582;5.298;2023-11-19T06:15:06;12.73;;;6.13;;
33826;SDS011;20128;45.582;5.298;2023-11-19T06:17:33;12.68;;;5.85;;
33826;SDS011;20128;45.582;5.298;2023-11-19T06:19:59;15.82;;;6.38;;
33826;SDS011;20128;45.582;5.298;2023-11-19T06:22:25;24.65;;;8.98;;
33826;SDS011;20128;45.582;5.298;2023-11-19T06:24:50;22.08;;;7.90;;
33826;SDS011;20128;45.582;5.298;2023-11-19T06:27:16;16.98;;;8.07;;
33826;SDS011;20128;45.582;5.298;2023-11-19T06:29:41;14.85;;;7.53;;
33826;SDS011;20128;45.582;5.298;2023-11-19T06:32:07;13.05;;;6.35;;
33826;SDS011;20128;45.582;5.298;2023-11-19T06:34:33;12.60;;;6.25;;
33826;SDS011;20128;45.582;5.298;2023-11-19T06:36:59;20.85;;;7.78;;
33826;SDS011;20128;45.582;5.298;2023-11-19T06:39:25;12.75;;;6.07;;
33826;SDS011;20128;45.582;5.298;2023-11-19T06:41:51;12.30;;;5.75;;
33826;SDS011;20128;45.582;5.298;2023-11-19T06:44:17;10.32;;;6.10;;
33826;SDS011;20128;45.582;5.298;2023-11-19T06:46:43;10.77;;;5.68;;
33826;SDS011;20128;45.582;5.298;2023-11-19T06:49:08;10.57;;;6.00;;
33826;SDS011;20128;45.582;5.298;2023-11-19T06:51:34;17.73;;;6.75;;
33826;SDS011;20128;45.582;5.298;2023-11-19T06:53:59;10.23;;;5.50;;
33826;SDS011;20128;45.582;5.298;2023-11-19T06:56:26;13.20;;;5.68;;
33826;SDS011;20128;45.582;5.298;2023-11-19T06:58:52;9.40;;;5.07;;
33826;SDS011;20128;45.582;5.298;2023-11-19T07:01:18;9.40;;;5.25;;
33826;SDS011;20128;45.582;5.298;2023-11-19T07:03:45;9.23;;;5.22;;
33826;SDS011;20128;45.582;5.298;2023-11-19T07:06:11;9.18;;;4.90;;
33826;SDS011;20128;45.582;5.298;2023-11-19T07:08:38;12.73;;;5.05;;
33826;SDS011;20128;45.582;5.298;2023-11-19T07:11:04;8.82;;;5.20;;
33826;SDS011;20128;45.582;5.298;2023-11-19T07:13:30;11.02;;;5.72;;
33826;SDS011;20128;45.582;5.298;2023-11-19T07:15:56;12.60;;;6.25;;
33826;SDS011;20128;45.582;5.298;2023-11-19T07:18:22;15.35;;;6.18;;
33826;SDS011;20128;45.582;5.298;2023-11-19T07:20:48;10.75;;;6.25;;
33826;SDS011;20128;45.582;5.298;2023-11-19T07:23:14;13.25;;;6.68;;
33826;SDS011;20128;45.582;5.298;2023-11-19T07:25:42;15.02;;;7.93;;
33826;SDS011;20128;45.582;5.298;2023-11-19T07:28:08;14.32;;;8.05;;
33826;SDS011;20128;45.582;5.298;2023-11-19T07:30:35;18.80;;;8.15;;
33826;SDS011;20128;45.582;5.298;2023-11-19T07:33:00;13.52;;;6.60;;
33826;SDS011;20128;45.582;5.298;2023-11-19T07:35:28;12.80;;;5.47;;
33826;SDS011;20128;45.582;5.298;2023-11-19T07:37:55;9.70;;;5.45;;
33826;SDS011;20128;45.582;5.298;2023-11-19T07:40:22;14.05;;;4.55;;
33826;SDS011;20128;45.582;5.298;2023-11-19T07:42:48;10.73;;;4.47;;
33826;SDS011;20128;45.582;5.298;2023-11-19T07:45:14;9.60;;;4.95;;
33826;SDS011;20128;45.582;5.298;2023-11-19T07:47:39;11.90;;;5.10;;
33826;SDS011;20128;45.582;5.298;2023-11-19T07:50:05;9.32;;;4.63;;
33826;SDS011;20128;45.582;5.298;2023-11-19T07:52:31;6.00;;;3.50;;
33826;SDS011;20128;45.582;5.298;2023-11-19T07:54:57;14.32;;;4.60;;
33826;SDS011;20128;45.582;5.298;2023-11-19T07:57:22;10.70;;;4.00;;
33826;SDS011;20128;45.582;5.298;2023-11-19T07:59:49;8.70;;;3.95;;
33826;SDS011;20128;45.582;5.298;2023-11-19T08:02:15;8.40;;;4.28;;
33826;SDS011;20128;45.582;5.298;2023-11-19T08:04:40;13.02;;;5.07;;
33826;SDS011;20128;45.582;5.298;2023-11-19T08:07:10;9.93;;;4.30;;
33826;SDS011;20128;45.582;5.298;2023-11-19T08:09:36;9.57;;;4.72;;
33826;SDS011;20128;45.582;5.298;2023-11-19T08:12:02;8.93;;;4.57;;
33826;SDS011;20128;45.582;5.298;2023-11-19T08:14:28;6.35;;;3.53;;
33826;SDS011;20128;45.582;5.298;2023-11-19T08:16:54;12.18;;;6.90;;
33826;SDS011;20128;45.582;5.298;2023-11-19T08:19:19;20.90;;;12.00;;
33826;SDS011;20128;45.582;5.298;2023-11-19T08:21:45;14.85;;;8.75;;
33826;SDS011;20128;45.582;5.298;2023-11-19T08:24:11;12.05;;;5.43;;
33826;SDS011;20128;45.582;5.298;2023-11-19T08:26:36;9.77;;;5.22;;
33826;SDS011;20128;45.582;5.298;2023-11-19T08:29:02;9.23;;;4.25;;
33826;SDS011;20128;45.582;5.298;2023-11-19T08:31:28;9.25;;;4.60;;
33826;SDS011;20128;45.582;5.298;2023-11-19T08:33:53;13.55;;;4.95;;
33826;SDS011;20128;45.582;5.298;2023-11-19T08:36:19;12.13;;;4.88;;
33826;SDS011;20128;45.582;5.298;2023-11-19T08:38:45;11.20;;;4.28;;
33826;SDS011;20128;45.582;5.298;2023-11-19T08:41:11;18.77;;;5.03;;
33826;SDS011;20128;45.582;5.298;2023-11-19T08:43:37;8.88;;;4.85;;
33826;SDS011;20128;45.582;5.298;2023-11-19T08:46:03;12.13;;;5.47;;
33826;SDS011;20128;45.582;5.298;2023-11-19T08:48:29;8.88;;;5.10;;
33826;SDS011;20128;45.582;5.298;2023-11-19T08:50:55;16.75;;;5.35;;
33826;SDS011;20128;45.582;5.298;2023-11-19T08:53:21;9.43;;;5.32;;
33826;SDS011;20128;45.582;5.298;2023-11-19T08:55:46;10.25;;;4.85;;
33826;SDS011;20128;45.582;5.298;2023-11-19T08:58:12;10.90;;;5.32;;
33826;SDS011;20128;45.582;5.298;2023-11-19T09:00:38;18.63;;;7.60;;
33826;SDS011;20128;45.582;5.298;2023-11-19T09:03:03;13.65;;;5.47;;
33826;SDS011;20128;45.582;5.298;2023-11-19T09:05:29;10.40;;;5.43;;
33826;SDS011;20128;45.582;5.298;2023-11-19T09:07:54;10.15;;;5.25;;
33826;SDS011;20128;45.582;5.298;2023-11-19T09:10:20;12.13;;;4.80;;
33826;SDS011;20128;45.582;5.298;2023-11-19T09:12:45;9.23;;;4.45;;
33826;SDS011;20128;45.582;5.298;2023-11-19T09:15:11;8.25;;;4.30;;
33826;SDS011;20128;45.582;5.298;2023-11-19T09:17:37;12.73;;;4.47;;
33826;SDS011;20128;45.582;5.298;2023-11-19T09:20:02;8.75;;;4.78;;
33826;SDS011;20128;45.582;5.298;2023-11-19T09:22:28;9.88;;;4.25;;
33826;SDS011;20128;45.582;5.298;2023-11-19T09:24:55;10.13;;;3.60;;
33826;SDS011;20128;45.582;5.298;2023-11-19T09:27:20;10.75;;;4.25;;
33826;SDS011;20128;45.582;5.298;2023-11-19T09:29:46;6.90;;;3.72;;
33826;SDS011;20128;45.582;5.298;2023-11-19T09:32:14;8.75;;;3.80;;
33826;SDS011;20128;45.582;5.298;2023-11-19T09:34:39;9.60;;;3.92;;
33826;SDS011;20128;45.582;5.298;2023-11-19T09:37:05;9.25;;;4.30;;
33826;SDS011;20128;45.582;5.298;2023-11-19T09:39:30;10.00;;;3.92;;
33826;SDS011;20128;45.582;5.298;2023-11-19T09:41:56;11.10;;;4.05;;
33826;SDS011;20128;45.582;5.298;2023-11-19T09:44:22;6.97;;;3.30;;
33826;SDS011;20128;45.582;5.298;2023-11-19T09:46:48;7.53;;;3.50;;
33826;SDS011;20128;45.582;5.298;2023-11-19T09:49:14;11.10;;;4.13;;
33826;SDS011;20128;45.582;5.298;2023-11-19T09:51:49;7.72;;;4.07;;
33826;SDS011;20128;45.582;5.298;2023-11-19T09:54:15;10.82;;;4.25;;
33826;SDS011;20128;45.582;5.298;2023-11-19T09:56:40;10.23;;;5.05;;
33826;SDS011;20128;45.582;5.298;2023-11-19T09:59:06;10.32;;;5.40;;
33826;SDS011;20128;45.582;5.298;2023-11-19T10:06:45;10.68;;;4.32;;
33826;SDS011;20128;45.582;5.298;2023-11-19T10:09:12;11.98;;;4.22;;
33826;SDS011;20128;45.582;5.298;2023-11-19T10:11:40;10.10;;;4.28;;
33826;SDS011;20128;45.582;5.298;2023-11-19T10:14:05;8.65;;;4.43;;
33826;SDS011;20128;45.582;5.298;2023-11-19T10:16:31;24.00;;;15.65;;
33826;SDS011;20128;45.582;5.298;2023-11-19T10:18:59;17.13;;;9.00;;
33826;SDS011;20128;45.582;5.298;2023-11-19T10:21:25;9.80;;;3.60;;
33826;SDS011;20128;45.582;5.298;2023-11-19T10:23:53;6.65;;;3.47;;
33826;SDS011;20128;45.582;5.298;2023-11-19T10:26:25;10.80;;;4.32;;
33826;SDS011;20128;45.582;5.298;2023-11-19T10:28:51;21.25;;;5.50;;
33826;SDS011;20128;45.582;5.298;2023-11-19T10:31:17;11.23;;;5.60;;
33826;SDS011;20128;45.582;5.298;2023-11-19T10:33:48;10.57;;;5.45;;
33826;SDS011;20128;45.582;5.298;2023-11-19T10:36:13;8.70;;;4.88;;
33826;SDS011;20128;45.582;5.298;2023-11-19T10:38:39;10.00;;;5.25;;
33826;SDS011;20128;45.582;5.298;2023-11-19T10:41:06;9.82;;;5.13;;
33826;SDS011;20128;45.582;5.298;2023-11-19T10:43:41;10.90;;;5.50;;
33826;SDS011;20128;45.582;5.298;2023-11-19T10:46:11;13.70;;;6.50;;
33826;SDS011;20128;45.582;5.298;2023-11-19T10:48:38;11.52;;;6.22;;
33826;SDS011;20128;45.582;5.298;2023-11-19T10:51:05;18.38;;;6.50;;
33826;SDS011;20128;45.582;5.298;2023-11-19T10:53:36;8.88;;;6.10;;
33826;SDS011;20128;45.582;5.298;2023-11-19T10:56:04;13.65;;;6.45;;
33826;SDS011;20128;45.582;5.298;2023-11-19T10:58:35;13.13;;;5.75;;
33826;SDS011;20128;45.582;5.298;2023-11-19T11:01:07;9.60;;;5.40;;
33826;SDS011;20128;45.582;5.298;2023-11-19T11:03:41;13.00;;;5.65;;
33826;SDS011;20128;45.582;5.298;2023-11-19T11:06:07;13.68;;;6.13;;
33826;SDS011;20128;45.582;5.298;2023-11-19T11:08:35;17.02;;;6.63;;
33826;SDS011;20128;45.582;5.298;2023-11-19T11:11:02;13.23;;;6.88;;
33826;SDS011;20128;45.582;5.298;2023-11-19T11:13:30;14.60;;;6.43;;
33826;SDS011;20128;45.582;5.298;2023-11-19T11:15:57;13.30;;;6.25;;
33826;SDS011;20128;45.582;5.298;2023-11-19T11:18:23;15.88;;;6.55;;
33826;SDS011;20128;45.582;5.298;2023-11-19T11:20:57;12.70;;;5.90;;
33826;SDS011;20128;45.582;5.298;2023-11-19T11:23:38;12.38;;;5.45;;
33826;SDS011;20128;45.582;5.298;2023-11-19T11:29:14;8.90;;;5.20;;
33826;SDS011;20128;45.582;5.298;2023-11-19T11:32:01;13.25;;;5.75;;
33826;SDS011;20128;45.582;5.298;2023-11-19T11:34:53;11.88;;;5.45;;
33826;SDS011;20128;45.582;5.298;2023-11-19T11:37:46;10.70;;;6.10;;
33826;SDS011;20128;45.582;5.298;2023-11-19T11:40:15;14.88;;;6.78;;
33826;SDS011;20128;45.582;5.298;2023-11-19T11:42:43;9.48;;;6.03;;
33826;SDS011;20128;45.582;5.298;2023-11-19T11:45:13;15.52;;;6.65;;
33826;SDS011;20128;45.582;5.298;2023-11-19T11:50:09;11.68;;;5.70;;
33826;SDS011;20128;45.582;5.298;2023-11-19T11:57:50;9.10;;;5.43;;
33826;SDS011;20128;45.582;5.298;2023-11-19T12:00:24;16.38;;;6.15;;
33826;SDS011;20128;45.582;5.298;2023-11-19T12:02:56;10.35;;;5.88;;
33826;SDS011;20128;45.582;5.298;2023-11-19T12:05:23;13.82;;;6.50;;
33826;SDS011;20128;45.582;5.298;2023-11-19T12:07:56;15.15;;;6.88;;
33826;SDS011;20128;45.582;5.298;2023-11-19T12:10:25;13.88;;;6.45;;
33826;SDS011;20128;45.582;5.298;2023-11-19T12:12:56;10.77;;;5.47;;
33826;SDS011;20128;45.582;5.298;2023-11-19T12:15:24;12.95;;;6.25;;
33826;SDS011;20128;45.582;5.298;2023-11-19T12:17:52;12.27;;;5.45;;
33826;SDS011;20128;45.582;5.298;2023-11-19T12:20:18;7.47;;;4.82;;
33826;SDS011;20128;45.582;5.298;2023-11-19T12:22:46;11.82;;;5.53;;
33826;SDS011;20128;45.582;5.298;2023-11-19T12:25:14;13.18;;;6.00;;
33826;SDS011;20128;45.582;5.298;2023-11-19T12:27:48;15.48;;;6.97;;
33826;SDS011;20128;45.582;5.298;2023-11-19T12:30:24;11.88;;;5.78;;
33826;SDS011;20128;45.582;5.298;2023-11-19T12:32:51;11.32;;;5.47;;
33826;SDS011;20128;45.582;5.298;2023-11-19T12:35:20;10.30;;;5.00;;
33826;SDS011;20128;45.582;5.298;2023-11-19T12:37:47;14.60;;;5.15;;
33826;SDS011;20128;45.582;5.298;2023-11-19T12:42:42;12.65;;;6.57;;
33826;SDS011;20128;45.582;5.298;2023-11-19T12:45:08;12.95;;;5.70;;
33826;SDS011;20128;45.582;5.298;2023-11-19T12:47:35;10.45;;;4.80;;
33826;SDS011;20128;45.582;5.298;2023-11-19T12:50:02;12.32;;;5.40;;
33826;SDS011;20128;45.582;5.298;2023-11-19T12:52:29;8.43;;;4.07;;
33826;SDS011;20128;45.582;5.298;2023-11-19T12:54:55;10.25;;;5.40;;
33826;SDS011;20128;45.582;5.298;2023-11-19T12:57:21;14.07;;;6.60;;
33826;SDS011;20128;45.582;5.298;2023-11-19T13:00:07;9.77;;;5.95;;
33826;SDS011;20128;45.582;5.298;2023-11-19T13:02:52;11.43;;;5.30;;
33826;SDS011;20128;45.582;5.298;2023-11-19T13:07:58;13.77;;;6.55;;
33826;SDS011;20128;45.582;5.298;2023-11-19T13:10:49;13.55;;;7.47;;
33826;SDS011;20128;45.582;5.298;2023-11-19T13:13:19;14.18;;;7.00;;
33826;SDS011;20128;45.582;5.298;2023-11-19T13:15:45;10.40;;;5.75;;
33826;SDS011;20128;45.582;5.298;2023-11-19T13:18:11;15.77;;;6.75;;
33826;SDS011;20128;45.582;5.298;2023-11-19T13:20:37;10.70;;;5.72;;
33826;SDS011;20128;45.582;5.298;2023-11-19T13:23:04;12.27;;;5.55;;
33826;SDS011;20128;45.582;5.298;2023-11-19T13:25:30;10.85;;;5.28;;
33826;SDS011;20128;45.582;5.298;2023-11-19T13:27:57;9.13;;;5.35;;
33826;SDS011;20128;45.582;5.298;2023-11-19T13:30:23;12.65;;;5.88;;
33826;SDS011;20128;45.582;5.298;2023-11-19T13:32:50;11.02;;;5.82;;
33826;SDS011;20128;45.582;5.298;2023-11-19T13:35:16;17.15;;;6.57;;
33826;SDS011;20128;45.582;5.298;2023-11-19T13:37:43;16.33;;;6.70;;
33826;SDS011;20128;45.582;5.298;2023-11-19T13:40:09;18.58;;;6.57;;
33826;SDS011;20128;45.582;5.298;2023-11-19T13:42:40;18.65;;;7.07;;
33826;SDS011;20128;45.582;5.298;2023-11-19T13:45:10;13.80;;;5.93;;
33826;SDS011;20128;45.582;5.298;2023-11-19T13:47:41;21.83;;;7.20;;
33826;SDS011;20128;45.582;5.298;2023-11-19T13:50:08;25.75;;;10.18;;
33826;SDS011;20128;45.582;5.298;2023-11-19T13:52:36;49.65;;;12.57;;
33826;SDS011;20128;45.582;5.298;2023-11-19T13:55:03;20.60;;;11.00;;
33826;SDS011;20128;45.582;5.298;2023-11-19T13:57:33;21.67;;;8.02;;
33826;SDS011;20128;45.582;5.298;2023-11-19T14:00:00;23.48;;;9.23;;
33826;SDS011;20128;45.582;5.298;2023-11-19T14:02:41;14.88;;;4.90;;
33826;SDS011;20128;45.582;5.298;2023-11-19T14:05:08;12.77;;;4.80;;
33826;SDS011;20128;45.582;5.298;2023-11-19T14:07:35;17.88;;;7.30;;
33826;SDS011;20128;45.582;5.298;2023-11-19T14:12:27;11.38;;;5.35;;
33826;SDS011;20128;45.582;5.298;2023-11-19T14:14:53;15.38;;;6.30;;
33826;SDS011;20128;45.582;5.298;2023-11-19T14:17:19;14.68;;;7.82;;
33826;SDS011;20128;45.582;5.298;2023-11-19T14:19:45;12.38;;;6.43;;
33826;SDS011;20128;45.582;5.298;2023-11-19T14:22:11;14.23;;;6.68;;
33826;SDS011;20128;45.582;5.298;2023-11-19T14:24:37;14.52;;;7.80;;
33826;SDS011;20128;45.582;5.298;2023-11-19T14:27:03;14.30;;;7.43;;
33826;SDS011;20128;45.582;5.298;2023-11-19T14:29:28;15.73;;;8.23;;
33826;SDS011;20128;45.582;5.298;2023-11-19T14:31:55;24.98;;;12.45;;
33826;SDS011;20128;45.582;5.298;2023-11-19T14:34:21;19.90;;;11.65;;
33826;SDS011;20128;45.582;5.298;2023-11-19T14:36:47;24.00;;;13.20;;
33826;SDS011;20128;45.582;5.298;2023-11-19T14:39:13;20.55;;;9.55;;
33826;SDS011;20128;45.582;5.298;2023-11-19T14:41:39;21.23;;;12.02;;
33826;SDS011;20128;45.582;5.298;2023-11-19T14:44:05;16.77;;;9.10;;
33826;SDS011;20128;45.582;5.298;2023-11-19T14:46:31;11.93;;;7.15;;
33826;SDS011;20128;45.582;5.298;2023-11-19T14:48:56;15.77;;;8.50;;
33826;SDS011;20128;45.582;5.298;2023-11-19T14:51:22;14.70;;;9.35;;
33826;SDS011;20128;45.582;5.298;2023-11-19T14:53:48;14.50;;;7.97;;
33826;SDS011;20128;45.582;5.298;2023-11-19T14:56:13;14.73;;;7.50;;
33826;SDS011;20128;45.582;5.298;2023-11-19T14:58:39;13.00;;;7.45;;